Cape Coral, FL (33914)

1:17 PM EST on February 28, 2017 (GMT -0500)
Cape Coral Pkwy, Skyline Blvd | | Change Station

Elev 18 ft 26.57 °N, 82.00 °W | Updated 12 minutes ago

Partly Cloudy
Partly Cloudy
83.8 °F
Feels Like 87 °F
N
4.0
Wind Variable Wind from ESE
Gusts 7.0 mph

Today
High -- | Low -- °F
--% Chance of Precip.
Yesterday
High -- | Low -- °F
Precip. -- in
Pressure 30.21 in
Visibility 10.0 miles
Clouds Scattered Clouds 4500 ft
Heat Index 87 °F
Dew Point 67 °F
Humidity 58%
Rainfall 0.00 in
Snow Depth Not available.
6:52 AM 6:28 PM
Waxing Crescent, 6% visible
METAR KFMY 281753Z 16008KT 10SM SCT045 31/18 A3020 RMK AO2 SLP229 T03110183 10311 20211 58022
Pressure 30.21 in
Visibility 10.0 miles
Clouds Scattered Clouds 4500 ft
Heat Index 87 °F
Dew Point 67 °F
Humidity 58%
Rainfall 0.00 in
Snow Depth Not available.
6:52 AM 6:28 PM
Waxing Crescent, 6% visible
METAR KFMY 281753Z 16008KT 10SM SCT045 31/18 A3020 RMK AO2 SLP229 T03110183 10311 20211 58022

Get Your Daily Forecast Email!

Thanks for signing up!

Be on the lookout for a verification email in your inbox.

You'll start receiving the daily forecast at 8 AM.

×

10-Day Weather Forecast

Almanac

Astronomy

Feb. 28, 2017 Rise Set
Actual Time
Civil Twilight
Nautical Twilight
Astronomical Twilight
Moon
Length of Visible Light
Length of Day
Tomorrow will be .
, % of the Moon is Illuminated

Today's Extremes

State Highs State Lows

Community

WunderPhotos

Upload Photos

1,962,540 photos uploaded!

WunderBlog® & News

Nearby

Air Quality

  Air Quality AQ Index Pollutant
Not available.

Snow Depth

Station Depth Elevation

Earthquake Activity

City Distance Mag. Time & Date
Minimum magnitude displayed is 2.5.

Coastal Water Temperatures

Place Temperature

Stations

Nearby Weather Stations

Station Location Temp. Windchill Dew Point Humidity Wind Precip. Elev Updated Type
                   

Watches & Warnings

There are currently no watches in effect.